Time;durP1;ratioP1;P1;durP2;ratioP2;P2;SDS_P1;SDS_P2;PMS_P1;PMS_P2;Temp;Humidity;BMP_temperature;BMP_pressure;BME280_temperature;BME280_humidity;BME280_pressure;Samples;Min_cycle;Max_cycle;Signal;HPM_P1;HPM_P2
2022/06/02 00:04:40;;;;;;;;;;;;;;;-145.66;100.00;59599.19;10540686;28;19920;-64
2022/06/02 00:09:48;;;;;;;;;;;;;;;-145.66;100.00;59599.19;10538885;28;19927;-64
2022/06/02 00:14:50;;;;;;;;;;;;;;;-145.66;100.00;59599.19;10540880;28;19920;-64
2022/06/02 00:20:05;;;;;;;;;;;;;;;-145.66;100.00;59599.19;10540379;28;19920;-64
2022/06/02 00:25:10;;;;;;;;;;;;;;;-145.66;100.00;59599.19;10522926;28;19931;-64
2022/06/02 00:30:25;;;;;;;;;;;;;;;-145.66;100.00;59599.19;10540426;28;19920;-64
2022/06/02 00:35:42;;;;;;;;;;;;;;;-145.66;100.00;59599.19;10521728;28;20378;-64
2022/06/02 00:40:46;;;;;;;;;;;;;;;-145.66;100.00;59599.19;10513989;28;19920;-64
2022/06/02 00:45:49;;;;;;;;;;;;;;;-145.66;100.00;59599.19;10522162;28;19924;-64
2022/06/02 00:50:57;;;;;;;;;;;;;;;-145.66;100.00;59599.19;10539343;28;19920;-64
2022/06/02 01:01:28;;;;;;;;;;;;;;;-145.66;100.00;59599.19;10544127;28;19920;-64
2022/06/02 01:06:36;;;;;;;;;;;;;;;-145.66;100.00;59599.19;10547660;28;20295;-64
2022/06/02 01:11:43;;;;;;;;;;;;;;;-145.66;100.00;59599.19;10547705;28;19938;-64
2022/06/02 01:16:53;;;;;;;;;;;;;;;-145.66;100.00;59599.19;10546948;28;19920;-64
2022/06/02 01:22:07;;;;;;;;;;;;;;;-145.66;100.00;59599.19;10529647;28;19924;-64
2022/06/02 01:27:09;;;;;;;;;;;;;;;-145.66;100.00;59599.19;10546596;28;19920;-64
2022/06/02 01:32:17;;;;;;;;;;;;;;;-145.66;100.00;59599.19;10546461;28;19943;-64
2022/06/02 01:37:22;;;;;;;;;;;;;;;-145.66;100.00;59599.19;10528063;28;20367;-64
2022/06/02 01:42:27;;;;;;;;;;;;;;;-145.66;100.00;59599.19;10517637;22;19921;-67
2022/06/02 01:47:34;;;;;;;;;;;;;;;-145.66;100.00;59599.19;10461950;28;19931;-67
2022/06/02 01:52:36;;;;;;;;;;;;;;;-145.66;100.00;59599.19;10462015;28;20279;-67
2022/06/02 01:57:45;;;;;;;;;;;;;;;-145.66;100.00;59599.19;10462006;28;19921;-67
2022/06/02 02:02:53;;;;;;;;;;;;;;;-145.66;100.00;59599.19;10462146;28;20386;-68
2022/06/02 02:07:55;;;;;;;;;;;;;;;-145.66;100.00;59599.19;10461687;28;19956;-67
2022/06/02 02:13:00;;;;;;;;;;;;;;;-145.66;100.00;59599.19;10462117;28;19943;-67
2022/06/02 02:18:02;;;;;;;;;;;;;;;-145.66;100.00;59599.19;10461496;28;19928;-67
2022/06/02 02:23:07;;;;;;;;;;;;;;;-145.66;100.00;59599.19;10461438;28;19927;-67
2022/06/02 02:28:22;;;;;;;;;;;;;;;-145.66;100.00;59599.19;10461419;28;19925;-67
2022/06/02 02:33:32;;;;;;;;;;;;;;;-145.66;100.00;59599.19;10502592;28;19941;-67
2022/06/02 02:38:53;;;;;;;;;;;;;;;-145.66;100.00;59599.19;10484729;28;19921;-67
2022/06/02 02:44:04;;;;;;;;;;;;;;;-145.66;100.00;59599.19;10484431;28;19931;-67
2022/06/02 02:49:14;;;;;;;;;;;;;;;-145.66;100.00;59599.19;10497275;28;19987;-67
2022/06/02 02:54:16;;;;;;;;;;;;;;;-145.66;100.00;59599.19;10483189;28;19920;-67
2022/06/02 02:59:19;;;;;;;;;;;;;;;-145.66;100.00;59599.19;10501130;28;19928;-67
2022/06/02 03:04:21;;;;;;;;;;;;;;;-145.66;100.00;59599.19;10501316;28;19920;-67
2022/06/02 03:09:26;;;;;;;;;;;;;;;-145.66;100.00;59599.19;10500454;28;19927;-67
2022/06/02 03:14:47;;;;;;;;;;;;;;;-145.66;100.00;59599.19;10500843;28;19927;-67
2022/06/02 03:20:25;;;;;;;;;;;;;;;-145.66;100.00;59599.19;10499455;28;19924;-66
2022/06/02 03:25:33;;;;;;;;;;;;;;;-145.66;100.00;59599.19;10401876;28;20401;-67
2022/06/02 03:30:42;;;;;;;;;;;;;;;-145.66;100.00;59599.19;10482210;28;20363;-66
2022/06/02 03:35:46;;;;;;;;;;;;;;;-145.66;100.00;59599.19;10481683;28;19930;-66
2022/06/02 03:40:55;;;;;;;;;;;;;;;-145.66;100.00;59599.19;10481587;28;19920;-67
2022/06/02 03:46:17;;;;;;;;;;;;;;;-145.66;100.00;59599.19;10498969;28;19920;-66
2022/06/02 03:51:21;;;;;;;;;;;;;;;-145.66;100.00;59599.19;10465108;28;19999;-67
2022/06/02 03:56:42;;;;;;;;;;;;;;;-145.66;100.00;59599.19;10481961;28;19920;-67
2022/06/02 04:01:56;;;;;;;;;;;;;;;-145.66;100.00;59599.19;10499436;28;19921;-68
2022/06/02 04:07:22;;;;;;;;;;;;;;;-145.66;100.00;59599.19;10498081;28;20275;-67
2022/06/02 04:18:00;;;;;;;;;;;;;;;-145.66;100.00;59599.19;10498736;28;19920;-67
2022/06/02 04:23:21;;;;;;;;;;;;;;;-145.66;100.00;59599.19;10499146;28;19927;-65
2022/06/02 04:28:24;;;;;;;;;;;;;;;-145.66;100.00;59599.19;10498532;28;19927;-66
2022/06/02 04:33:33;;;;;;;;;;;;;;;-145.66;100.00;59599.19;10498231;28;20283;-66
2022/06/02 04:38:49;;;;;;;;;;;;;;;-145.66;100.00;59599.19;10479690;28;19928;-66
2022/06/02 04:43:53;;;;;;;;;;;;;;;-145.66;100.00;59599.19;10481058;28;19927;-66
2022/06/02 04:49:11;;;;;;;;;;;;;;;-145.66;100.00;59599.19;10480423;28;19921;-66
2022/06/02 04:54:32;;;;;;;;;;;;;;;-145.66;100.00;59599.19;10497982;28;19920;-66
2022/06/02 04:59:54;;;;;;;;;;;;;;;-145.66;100.00;59599.19;10498275;28;19966;-66
2022/06/02 05:05:02;;;;;;;;;;;;;;;-145.66;100.00;59599.19;10497378;28;19920;-66
2022/06/02 05:10:23;;;;;;;;;;;;;;;-145.66;100.00;59599.19;10497137;28;19928;-66
2022/06/02 05:15:28;;;;;;;;;;;;;;;-145.66;100.00;59599.19;10497907;28;19920;-66
2022/06/02 05:20:49;;;;;;;;;;;;;;;-145.66;100.00;59599.19;10497222;28;19921;-66
2022/06/02 05:26:01;;;;;;;;;;;;;;;-145.66;100.00;59599.19;10497391;28;19927;-66
2022/06/02 05:31:18;;;;;;;;;;;;;;;-145.66;100.00;59599.19;10479582;28;20363;-66
2022/06/02 05:36:27;;;;;;;;;;;;;;;-145.66;100.00;59599.19;10496920;28;19986;-66
2022/06/02 05:41:38;;;;;;;;;;;;;;;-145.66;100.00;59599.19;10499169;28;20015;-66
2022/06/02 05:46:59;;;;;;;;;;;;;;;-145.66;100.00;59599.19;10504570;28;19928;-66
2022/06/02 05:52:01;;;;;;;;;;;;;;;-145.66;100.00;59599.19;10504267;28;19920;-66
2022/06/02 05:57:11;;;;;;;;;;;;;;;-145.66;100.00;59599.19;10503518;28;19920;-67
2022/06/02 06:02:13;;;;;;;;;;;;;;;-145.66;100.00;59599.19;10503482;28;19927;-67
2022/06/02 06:07:25;;;;;;;;;;;;;;;-145.66;100.00;59599.19;10503776;28;20028;-66
2022/06/02 06:12:39;;;;;;;;;;;;;;;-145.66;100.00;59599.19;10503208;28;20302;-66
2022/06/02 06:17:41;;;;;;;;;;;;;;;-145.66;100.00;59599.19;10503015;28;19920;-66
2022/06/02 06:22:48;;;;;;;;;;;;;;;-145.66;100.00;59599.19;10503238;28;19920;-66
2022/06/02 06:28:06;;;;;;;;;;;;;;;-145.66;100.00;59599.19;10502400;28;19931;-66
2022/06/02 06:33:16;;;;;;;;;;;;;;;-145.66;100.00;59599.19;10502031;28;19920;-66
2022/06/02 06:38:18;;;;;;;;;;;;;;;-145.66;100.00;59599.19;10484439;28;19928;-67
2022/06/02 06:43:37;;;;;;;;;;;;;;;-145.66;100.00;59599.19;10502152;28;19924;-66
2022/06/02 06:49:02;;;;;;;;;;;;;;;-145.66;100.00;59599.19;10484821;28;19946;-66
2022/06/02 06:54:16;;;;;;;;;;;;;;;-145.66;100.00;59599.19;10491690;28;19943;-66
2022/06/02 06:59:29;;;;;;;;;;;;;;;-145.66;100.00;59599.19;10483626;28;19967;-66
2022/06/02 07:04:37;;;;;;;;;;;;;;;-145.66;100.00;59599.19;10483510;28;19920;-67
2022/06/02 07:09:52;;;;;;;;;;;;;;;-145.66;100.00;59599.19;10482693;28;20282;-62
2022/06/02 07:14:59;;;;;;;;;;;;;;;-145.66;100.00;59599.19;10466207;28;19920;-62
2022/06/02 07:20:04;;;;;;;;;;;;;;;-145.66;100.00;59599.19;10501069;28;19921;-63
2022/06/02 07:25:19;;;;;;;;;;;;;;;-145.66;100.00;59599.19;10483555;28;19921;-60
2022/06/02 07:30:27;;;;;;;;;;;;;;;-145.66;100.00;59599.19;10482247;28;20397;-62
2022/06/02 07:35:48;;;;;;;;;;;;;;;-145.66;100.00;59599.19;10500192;28;19920;-62
2022/06/02 07:40:59;;;;;;;;;;;;;;;-145.66;100.00;59599.19;10499447;28;19924;-63
2022/06/02 07:46:11;;;;;;;;;;;;;;;-145.66;100.00;59599.19;10500037;28;19927;-63
2022/06/02 07:51:17;;;;;;;;;;;;;;;-145.66;100.00;59599.19;10499860;28;19924;-63
2022/06/02 07:56:30;;;;;;;;;;;;;;;-145.66;100.00;59599.19;10482429;28;19921;-62
2022/06/02 08:01:47;;;;;;;;;;;;;;;-145.66;100.00;59599.19;10481990;28;19920;-62
2022/06/02 08:06:59;;;;;;;;;;;;;;;-145.66;100.00;59599.19;10499160;28;19920;-62
2022/06/02 08:12:04;;;;;;;;;;;;;;;-145.66;100.00;59599.19;10481041;28;19924;-62
2022/06/02 08:17:09;;;;;;;;;;;;;;;-145.66;100.00;59599.19;10499190;28;19920;-62
2022/06/02 08:22:12;;;;;;;;;;;;;;;-145.66;100.00;59599.19;10499041;28;19924;-62
2022/06/02 08:27:23;;;;;;;;;;;;;;;-145.66;100.00;59599.19;10481189;28;19931;-63
2022/06/02 08:32:38;;;;;;;;;;;;;;;-145.66;100.00;59599.19;10498922;28;19921;-63
2022/06/02 08:37:55;;;;;;;;;;;;;;;-145.66;100.00;59599.19;10497993;28;20402;-63
2022/06/02 08:43:13;;;;;;;;;;;;;;;-145.66;100.00;59599.19;10481617;28;19978;-63
2022/06/02 08:48:26;;;;;;;;;;;;;;;-145.66;100.00;59599.19;10481045;28;19942;-62
2022/06/02 08:53:44;;;;;;;;;;;;;;;-145.66;100.00;59599.19;10480047;28;19920;-62
2022/06/02 08:59:07;;;;;;;;;;;;;;;-145.66;100.00;59599.19;10498403;28;19926;-62
2022/06/02 09:04:25;;;;;;;;;;;;;;;-145.66;100.00;59599.19;10497636;28;19920;-62
2022/06/02 09:09:27;;;;;;;;;;;;;;;-145.66;100.00;59599.19;10497518;28;19920;-62
2022/06/02 09:14:41;;;;;;;;;;;;;;;-145.66;100.00;59599.19;10480186;28;19927;-63
2022/06/02 09:19:47;;;;;;;;;;;;;;;-145.66;100.00;59599.19;10486985;28;19920;-62
2022/06/02 09:24:50;;;;;;;;;;;;;;;-145.66;100.00;59599.19;10487946;28;19952;-62
2022/06/02 09:29:57;;;;;;;;;;;;;;;-145.66;100.00;59599.19;10503785;28;19929;-62
2022/06/02 09:34:59;;;;;;;;;;;;;;;-145.66;100.00;59599.19;10503511;28;20389;-63
2022/06/02 09:40:07;;;;;;;;;;;;;;;-145.66;100.00;59599.19;10504699;28;19931;-62
2022/06/02 09:45:21;;;;;;;;;;;;;;;-145.66;100.00;59599.19;10504579;28;20271;-63
2022/06/02 09:50:29;;;;;;;;;;;;;;;-145.66;100.00;59599.19;10486580;28;20278;-62
2022/06/02 09:55:39;;;;;;;;;;;;;;;-145.66;100.00;59599.19;10503532;28;19924;-62
2022/06/02 10:00:48;;;;;;;;;;;;;;;-145.66;100.00;59599.19;10485813;28;20276;-62
2022/06/02 10:05:51;;;;;;;;;;;;;;;-145.66;100.00;59599.19;10485810;28;20458;-62
2022/06/02 10:11:11;;;;;;;;;;;;;;;-145.66;100.00;59599.19;10485629;28;19928;-62
2022/06/02 10:16:32;;;;;;;;;;;;;;;-145.66;100.00;59599.19;10485376;28;20383;-62
2022/06/02 10:21:55;;;;;;;;;;;;;;;-145.66;100.00;59599.19;10503216;28;19920;-62
2022/06/02 10:27:01;;;;;;;;;;;;;;;-145.66;100.00;59599.19;10502449;28;20287;-62
2022/06/02 10:32:15;;;;;;;;;;;;;;;-145.66;100.00;59599.19;10502871;28;19920;-63
2022/06/02 10:37:30;;;;;;;;;;;;;;;-145.66;100.00;59599.19;10466567;28;19926;-62
2022/06/02 10:42:46;;;;;;;;;;;;;;;-145.66;100.00;59599.19;10500875;28;19931;-63
2022/06/02 10:47:48;;;;;;;;;;;;;;;-145.66;100.00;59599.19;10484189;28;19920;-63
2022/06/02 10:52:59;;;;;;;;;;;;;;;-145.66;100.00;59599.19;10502271;28;19920;-63
2022/06/02 10:58:01;;;;;;;;;;;;;;;-145.66;100.00;59599.19;10483285;28;19925;-63
2022/06/02 11:03:22;;;;;;;;;;;;;;;-145.66;100.00;59599.19;10501023;28;19921;-63
2022/06/02 11:08:28;;;;;;;;;;;;;;;-145.66;100.00;59599.19;10483949;28;19928;-63
2022/06/02 11:13:48;;;;;;;;;;;;;;;-145.66;100.00;59599.19;10501475;28;19920;-63
2022/06/02 11:18:53;;;;;;;;;;;;;;;-145.66;100.00;59599.19;10499515;28;20394;-63
2022/06/02 11:24:14;;;;;;;;;;;;;;;-145.66;100.00;59599.19;10500985;28;19926;-63
2022/06/02 11:29:35;;;;;;;;;;;;;;;-145.66;100.00;59599.19;10499137;28;20359;-63
2022/06/02 11:34:47;;;;;;;;;;;;;;;-145.66;100.00;59599.19;10499421;28;19920;-63
2022/06/02 11:39:58;;;;;;;;;;;;;;;-145.66;100.00;59599.19;10500266;28;19927;-63
2022/06/02 11:45:07;;;;;;;;;;;;;;;-145.66;100.00;59599.19;10499882;28;20317;-64
2022/06/02 11:50:33;;;;;;;;;;;;;;;-145.66;100.00;59599.19;10500038;28;19926;-63
2022/06/02 11:55:35;;;;;;;;;;;;;;;-145.66;100.00;59599.19;10481567;28;19920;-63
2022/06/02 12:00:44;;;;;;;;;;;;;;;-145.66;100.00;59599.19;10498874;28;20282;-63
2022/06/02 12:05:46;;;;;;;;;;;;;;;-145.66;100.00;59599.19;10500851;28;19962;-63
2022/06/02 12:11:08;;;;;;;;;;;;;;;-145.66;100.00;59599.19;10498759;28;20301;-64
2022/06/02 12:16:15;;;;;;;;;;;;;;;-145.66;100.00;59599.19;10498931;28;20423;-63
2022/06/02 12:21:40;;;;;;;;;;;;;;;-145.66;100.00;59599.19;10480703;28;20295;-63
2022/06/02 12:26:52;;;;;;;;;;;;;;;-145.66;100.00;59599.19;10481408;28;19920;-63
2022/06/02 12:31:57;;;;;;;;;;;;;;;-145.66;100.00;59599.19;10498956;28;19931;-63
2022/06/02 12:37:06;;;;;;;;;;;;;;;-145.66;100.00;59599.19;10498777;28;19927;-63
2022/06/02 12:42:23;;;;;;;;;;;;;;;-145.66;100.00;59599.19;10498081;28;20427;-63
2022/06/02 12:47:38;;;;;;;;;;;;;;;-145.66;100.00;59599.19;10498029;28;19920;-63
2022/06/02 12:52:49;;;;;;;;;;;;;;;-145.66;100.00;59599.19;10487254;28;19926;-67
2022/06/02 12:58:01;;;;;;;;;;;;;;;-145.66;100.00;59599.19;10505196;28;20302;-70
2022/06/02 13:03:03;;;;;;;;;;;;;;;-145.66;100.00;59599.19;10506438;28;19921;-67
2022/06/02 13:08:24;;;;;;;;;;;;;;;-145.66;100.00;59599.19;10505683;28;20361;-67
2022/06/02 13:13:45;;;;;;;;;;;;;;;-145.66;100.00;59599.19;10506218;28;19920;-68
2022/06/02 13:19:23;;;;;;;;;;;;;;;-145.66;100.00;59599.19;10505714;28;19920;-67
2022/06/02 13:24:25;;;;;;;;;;;;;;;-145.66;100.00;59599.19;10430365;28;19920;-67
2022/06/02 13:29:27;;;;;;;;;;;;;;;-145.66;100.00;59599.19;10505332;28;19920;-66
2022/06/02 13:34:59;;;;;;;;;;;;;;;-145.66;100.00;59599.19;10505030;28;19956;-67
2022/06/02 13:40:18;;;;;;;;;;;;;;;-145.66;100.00;59599.19;10487040;28;19920;-67
2022/06/02 13:45:23;;;;;;;;;;;;;;;-145.66;100.00;59599.19;10487053;28;20291;-67
2022/06/02 13:50:46;;;;;;;;;;;;;;;-145.66;100.00;59599.19;10504217;28;20035;-67
2022/06/02 14:01:22;;;;;;;;;;;;;;;-145.66;100.00;59599.19;10296224;28;19922;-68
2022/06/02 14:06:25;;;;;;;;;;;;;;;-145.66;100.00;59599.19;10299703;28;19922;-68
2022/06/02 14:11:46;;;;;;;;;;;;;;;-145.66;100.00;59599.19;10297870;28;20392;-68
2022/06/02 14:16:54;;;;;;;;;;;;;;;-145.66;100.00;59599.19;10298802;28;19922;-68
2022/06/02 14:22:14;;;;;;;;;;;;;;;-145.66;100.00;59599.19;10299255;28;19928;-68
2022/06/02 14:27:46;;;;;;;;;;;;;;;-145.66;100.00;59599.19;10298445;28;20258;-68
2022/06/02 14:33:00;;;;;;;;;;;;;;;-145.66;100.00;59599.19;10263075;28;19922;-69
2022/06/02 14:38:09;;;;;;;;;;;;;;;-145.66;100.00;59599.19;10298112;28;19928;-68
2022/06/02 14:43:11;;;;;;;;;;;;;;;-145.66;100.00;59599.19;10298432;28;19930;-68
2022/06/02 14:48:32;;;;;;;;;;;;;;;-145.66;100.00;59599.19;10298245;28;19929;-68
2022/06/02 14:53:40;;;;;;;;;;;;;;;-145.66;100.00;59599.19;10298045;28;19922;-72
2022/06/02 14:58:49;;;;;;;;;;;;;;;-145.66;100.00;59599.19;10318215;28;19929;-69
2022/06/02 15:03:51;;;;;;;;;;;;;;;-145.66;100.00;59599.19;10337891;28;19926;-69
2022/06/02 15:08:56;;;;;;;;;;;;;;;-145.66;100.00;59599.19;10337143;28;19921;-69
2022/06/02 15:14:08;;;;;;;;;;;;;;;-145.66;100.00;59599.19;10335923;28;19929;-70
2022/06/02 15:19:22;;;;;;;;;;;;;;;-145.66;100.00;59599.19;10336549;28;20365;-68
2022/06/02 15:24:46;;;;;;;;;;;;;;;-145.66;100.00;59599.19;10336418;28;19921;-69
2022/06/02 15:30:00;;;;;;;;;;;;;;;-145.66;100.00;59599.19;10335072;28;20373;-69
2022/06/02 15:35:22;;;;;;;;;;;;;;;-145.66;100.00;59599.19;10335931;28;19922;-69
2022/06/02 15:40:33;;;;;;;;;;;;;;;-145.66;100.00;59599.19;10336413;28;19928;-69
2022/06/02 15:46:11;;;;;;;;;;;;;;;-145.66;100.00;59599.19;10336098;28;19928;-70
2022/06/02 15:51:32;;;;;;;;;;;;;;;-145.66;100.00;59599.19;10286418;28;20272;-70
2022/06/02 15:56:52;;;;;;;;;;;;;;;-145.66;100.00;59599.19;10335036;28;19925;-69
2022/06/02 16:02:27;;;;;;;;;;;;;;;-145.66;100.00;59599.19;10335090;28;19944;-69
2022/06/02 16:07:48;;;;;;;;;;;;;;;-145.66;100.00;59599.19;10312894;28;19921;-69
2022/06/02 16:12:59;;;;;;;;;;;;;;;-145.66;100.00;59599.19;10334726;28;19944;-69
2022/06/02 16:18:02;;;;;;;;;;;;;;;-145.66;100.00;59599.19;10333301;28;19926;-69
2022/06/02 16:23:11;;;;;;;;;;;;;;;-145.66;100.00;59599.19;10335081;28;19960;-70
2022/06/02 16:28:31;;;;;;;;;;;;;;;-145.66;100.00;59599.19;10333510;28;20295;-69
2022/06/02 16:33:34;;;;;;;;;;;;;;;-145.66;100.00;59599.19;10334808;28;19928;-70
2022/06/02 16:38:41;;;;;;;;;;;;;;;-145.66;100.00;59599.19;10334079;28;19922;-69
2022/06/02 16:43:43;;;;;;;;;;;;;;;-145.66;100.00;59599.19;10334037;28;19929;-70
2022/06/02 16:48:49;;;;;;;;;;;;;;;-145.66;100.00;59599.19;10334091;28;20280;-69
2022/06/02 16:54:06;;;;;;;;;;;;;;;-145.66;100.00;59599.19;10333294;28;19961;-69
2022/06/02 16:59:18;;;;;;;;;;;;;;;-145.66;100.00;59599.19;10333698;28;19922;-66
2022/06/02 17:04:26;;;;;;;;;;;;;;;-145.66;100.00;59599.19;10333599;28;19928;-67
2022/06/02 17:09:47;;;;;;;;;;;;;;;-145.66;100.00;59599.19;10332760;28;19921;-66
2022/06/02 17:14:54;;;;;;;;;;;;;;;-145.66;100.00;59599.19;10333306;28;20285;-67
2022/06/02 17:19:57;;;;;;;;;;;;;;;-145.66;100.00;59599.19;10332105;28;19921;-67
2022/06/02 17:25:18;;;;;;;;;;;;;;;-145.66;100.00;59599.19;10333397;28;19922;-67
2022/06/02 17:30:29;;;;;;;;;;;;;;;-145.66;100.00;59599.19;10332187;28;19922;-66
2022/06/02 17:35:35;;;;;;;;;;;;;;;-145.66;100.00;59599.19;10331852;28;20476;-67
2022/06/02 17:40:42;;;;;;;;;;;;;;;-145.66;100.00;59599.19;10339370;28;19922;-66
2022/06/02 17:45:48;;;;;;;;;;;;;;;-145.66;100.00;59599.19;10339775;28;19928;-66
2022/06/02 17:51:13;;;;;;;;;;;;;;;-145.66;100.00;59599.19;10324561;28;19945;-66
2022/06/02 17:56:34;;;;;;;;;;;;;;;-145.66;100.00;59599.19;10339229;28;19921;-65
2022/06/02 18:01:43;;;;;;;;;;;;;;;-145.66;100.00;59599.19;10297587;28;20024;-65
2022/06/02 18:06:51;;;;;;;;;;;;;;;-145.66;100.00;59599.19;10259745;29;19922;-67
2022/06/02 18:11:56;;;;;;;;;;;;;;;-145.66;100.00;59599.19;10282925;28;19926;-66
2022/06/02 18:17:17;;;;;;;;;;;;;;;-145.66;100.00;59599.19;10299272;28;19945;-67
2022/06/02 18:22:25;;;;;;;;;;;;;;;-145.66;100.00;59599.19;10297978;28;19926;-63
2022/06/02 18:27:46;;;;;;;;;;;;;;;-145.66;100.00;59599.19;10297303;28;19922;-64
2022/06/02 18:33:41;;;;;;;;;;;;;;;-145.66;100.00;59599.19;10305150;28;20373;-63
2022/06/02 18:38:43;;;;;;;;;;;;;;;-145.66;100.00;59599.19;10275740;28;19929;-63
2022/06/02 18:43:51;;;;;;;;;;;;;;;-145.66;100.00;59599.19;10297505;28;19929;-63
2022/06/02 18:49:07;;;;;;;;;;;;;;;-145.66;100.00;59599.19;10296222;28;20333;-63
2022/06/02 18:54:19;;;;;;;;;;;;;;;-145.66;100.00;59599.19;10296246;28;20404;-63
2022/06/02 18:59:33;;;;;;;;;;;;;;;-145.66;100.00;59599.19;10321838;28;19932;-63
2022/06/02 19:04:54;;;;;;;;;;;;;;;-145.66;100.00;59599.19;10336150;28;19921;-63
2022/06/02 19:15:30;;;;;;;;;;;;;;;-145.66;100.00;59599.19;10359946;28;19928;-63
2022/06/02 19:20:38;;;;;;;;;;;;;;;-145.66;100.00;59599.19;10377746;28;19976;-63
2022/06/02 19:25:59;;;;;;;;;;;;;;;-145.66;100.00;59599.19;10360913;28;19930;-63
2022/06/02 19:31:01;;;;;;;;;;;;;;;-145.66;100.00;59599.19;10336481;28;19932;-63
2022/06/02 19:36:04;;;;;;;;;;;;;;;-145.66;100.00;59599.19;10336000;28;19921;-63
2022/06/02 19:41:15;;;;;;;;;;;;;;;-145.66;100.00;59599.19;10335573;28;19929;-63
2022/06/02 19:46:23;;;;;;;;;;;;;;;-145.66;100.00;59599.19;10339731;28;19922;-63
2022/06/02 19:51:26;;;;;;;;;;;;;;;-145.66;100.00;59599.19;10335399;28;19964;-63
2022/06/02 19:56:29;;;;;;;;;;;;;;;-145.66;100.00;59599.19;10351853;28;19929;-63
2022/06/02 20:01:42;;;;;;;;;;;;;;;-145.66;100.00;59599.19;10316615;28;19925;-63
2022/06/02 20:06:46;;;;;;;;;;;;;;;-145.66;100.00;59599.19;10350985;28;19922;-63
2022/06/02 20:11:53;;;;;;;;;;;;;;;-145.66;100.00;59599.19;10336353;28;19921;-63
2022/06/02 20:17:00;;;;;;;;;;;;;;;-145.66;100.00;59599.19;10336703;28;19922;-63
2022/06/02 20:22:05;;;;;;;;;;;;;;;-145.66;100.00;59599.19;10361561;28;19921;-63
2022/06/02 20:27:14;;;;;;;;;;;;;;;-145.66;100.00;59599.19;10333476;28;19922;-63
2022/06/02 20:32:18;;;;;;;;;;;;;;;-145.66;100.00;59599.19;10333168;28;19922;-63
2022/06/02 20:37:39;;;;;;;;;;;;;;;-145.66;100.00;59599.19;10317290;28;19922;-63
2022/06/02 20:42:41;;;;;;;;;;;;;;;-145.66;100.00;59599.19;10333809;28;20262;-63
2022/06/02 20:47:50;;;;;;;;;;;;;;;-145.66;100.00;59599.19;10335012;28;19928;-63
2022/06/02 20:52:56;;;;;;;;;;;;;;;-145.66;100.00;59599.19;10333641;28;19925;-64
2022/06/02 20:58:05;;;;;;;;;;;;;;;-145.66;100.00;59599.19;10333515;28;19921;-63
2022/06/02 21:03:07;;;;;;;;;;;;;;;-145.66;100.00;59599.19;10316218;28;20374;-63
2022/06/02 21:08:10;;;;;;;;;;;;;;;-145.66;100.00;59599.19;10334057;28;19928;-63
2022/06/02 21:13:18;;;;;;;;;;;;;;;-145.66;100.00;59599.19;10338265;28;19925;-63
2022/06/02 21:18:23;;;;;;;;;;;;;;;-145.66;100.00;59599.19;10341047;28;19921;-63
2022/06/02 21:23:26;;;;;;;;;;;;;;;-145.66;100.00;59599.19;10323171;28;20284;-64
2022/06/02 21:28:29;;;;;;;;;;;;;;;-145.66;100.00;59599.19;10341550;28;19922;-63
2022/06/02 21:33:34;;;;;;;;;;;;;;;-145.66;100.00;59599.19;10340067;28;19941;-63
2022/06/02 21:38:47;;;;;;;;;;;;;;;-145.66;100.00;59599.19;10340937;28;19922;-63
2022/06/02 21:43:57;;;;;;;;;;;;;;;-145.66;100.00;59599.19;10305630;28;19921;-63
2022/06/02 21:48:59;;;;;;;;;;;;;;;-145.66;100.00;59599.19;10339250;28;19928;-63
2022/06/02 21:54:07;;;;;;;;;;;;;;;-145.66;100.00;59599.19;10340693;28;19921;-63
2022/06/02 21:59:16;;;;;;;;;;;;;;;-145.66;100.00;59599.19;10338442;28;19928;-63
2022/06/02 22:04:27;;;;;;;;;;;;;;;-145.66;100.00;59599.19;10339863;28;19922;-63
2022/06/02 22:09:40;;;;;;;;;;;;;;;-145.66;100.00;59599.19;10339657;28;20005;-63
2022/06/02 22:14:46;;;;;;;;;;;;;;;-145.66;100.00;59599.19;10339820;28;19926;-63
2022/06/02 22:19:50;;;;;;;;;;;;;;;-145.66;100.00;59599.19;10338176;28;19921;-63
2022/06/02 22:25:05;;;;;;;;;;;;;;;-145.66;100.00;59599.19;10337361;28;19921;-63
2022/06/02 22:30:11;;;;;;;;;;;;;;;-145.66;100.00;59599.19;10338373;28;20376;-63
2022/06/02 22:35:25;;;;;;;;;;;;;;;-145.66;100.00;59599.19;10337800;28;19921;-63
2022/06/02 22:40:28;;;;;;;;;;;;;;;-145.66;100.00;59599.19;10336486;28;19945;-63
2022/06/02 22:45:42;;;;;;;;;;;;;;;-145.66;100.00;59599.19;10337810;28;19929;-63
2022/06/02 22:50:53;;;;;;;;;;;;;;;-145.66;100.00;59599.19;10337183;28;19922;-63
2022/06/02 22:55:56;;;;;;;;;;;;;;;-145.66;100.00;59599.19;10338151;28;19928;-63
2022/06/02 23:00:58;;;;;;;;;;;;;;;-145.66;100.00;59599.19;10336769;28;19922;-63
2022/06/02 23:06:00;;;;;;;;;;;;;;;-145.66;100.00;59599.19;10336862;28;20416;-63
2022/06/02 23:11:18;;;;;;;;;;;;;;;-145.66;100.00;59599.19;10336761;28;19932;-63
2022/06/02 23:16:25;;;;;;;;;;;;;;;-145.66;100.00;59599.19;10337253;28;19929;-63
2022/06/02 23:21:51;;;;;;;;;;;;;;;-145.66;100.00;59599.19;10335419;28;19988;-63
2022/06/02 23:26:58;;;;;;;;;;;;;;;-145.66;100.00;59599.19;10318561;28;19932;-63
2022/06/02 23:32:04;;;;;;;;;;;;;;;-145.66;100.00;59599.19;10335749;28;19921;-63
2022/06/02 23:37:17;;;;;;;;;;;;;;;-145.66;100.00;59599.19;10335359;28;19968;-63
2022/06/02 23:47:46;;;;;;;;;;;;;;;-145.66;100.00;59599.19;10336178;28;19922;-63
2022/06/02 23:53:12;;;;;;;;;;;;;;;-145.66;100.00;59599.19;10335698;28;19921;-63
2022/06/02 23:58:33;;;;;;;;;;;;;;;-145.66;100.00;59599.19;10334235;28;19922;-63
